createdAt,value
2024-02-24T00:01:23.946Z,97270.00
2024-02-24T00:02:57.281Z,97274.00
2024-02-24T00:04:30.160Z,97265.00
2024-02-24T00:06:05.896Z,97267.00
2024-02-24T00:07:38.399Z,97268.00
2024-02-24T00:09:12.030Z,97263.00
2024-02-24T00:10:44.612Z,97266.00
2024-02-24T00:12:18.306Z,97269.00
2024-02-24T00:13:51.013Z,97254.00
2024-02-24T00:15:24.719Z,97256.00
2024-02-24T00:16:57.181Z,97257.00
2024-02-24T00:18:30.592Z,97271.00
2024-02-24T00:20:04.356Z,97265.00
2024-02-24T00:21:39.263Z,97267.00
2024-02-24T00:23:11.959Z,97259.00
2024-02-24T00:24:45.248Z,97264.00
2024-02-24T00:26:17.781Z,97255.00
2024-02-24T00:27:51.999Z,97257.00
2024-02-24T00:29:24.387Z,97253.00
2024-02-24T00:30:59.212Z,97252.00
2024-02-24T00:32:32.632Z,97247.00
2024-02-24T00:34:06.185Z,97253.00
2024-02-24T00:35:40.310Z,97254.00
2024-02-24T00:37:17.377Z,97247.00
2024-02-24T00:38:49.742Z,97244.00
2024-02-24T00:40:23.104Z,97247.00
2024-02-24T00:41:55.424Z,97246.00
2024-02-24T00:43:28.862Z,97246.00
2024-02-24T00:45:02.289Z,97247.00
2024-02-24T00:46:34.682Z,97258.00
2024-02-24T00:48:09.287Z,97247.00
2024-02-24T00:49:41.929Z,97246.00
2024-02-24T00:51:15.481Z,97252.00
2024-02-24T00:52:49.199Z,97244.00
2024-02-24T00:54:22.622Z,97243.00
2024-02-24T00:55:55.017Z,97244.00
2024-02-24T00:57:28.343Z,97239.00
2024-02-24T00:59:01.021Z,97240.00
2024-02-24T01:00:34.532Z,97242.00
2024-02-24T01:02:07.178Z,97253.00
2024-02-24T01:03:40.535Z,97252.00
2024-02-24T01:05:13.191Z,97247.00
2024-02-24T01:06:46.573Z,97243.00
2024-02-24T01:08:22.109Z,97242.00
2024-02-24T01:09:54.537Z,97242.00
2024-02-24T01:11:28.416Z,97244.00
2024-02-24T01:13:02.088Z,97248.00
2024-02-24T01:14:34.830Z,97248.00
2024-02-24T01:16:08.704Z,97246.00
2024-02-24T01:17:41.140Z,97243.00
2024-02-24T01:19:14.638Z,97246.00
2024-02-24T01:20:49.944Z,97247.00
2024-02-24T01:22:24.090Z,97254.00
2024-02-24T01:23:57.749Z,97253.00
2024-02-24T01:25:31.021Z,97260.00
2024-02-24T01:27:03.407Z,97260.00
2024-02-24T01:28:37.898Z,97262.00
2024-02-24T01:30:11.510Z,97265.00
2024-02-24T01:31:44.759Z,97258.00
2024-02-24T01:33:17.425Z,97249.00
2024-02-24T01:34:50.677Z,97265.00
2024-02-24T01:36:23.142Z,97257.00
2024-02-24T01:37:56.410Z,97257.00
2024-02-24T01:39:32.505Z,97261.00
2024-02-24T01:41:06.467Z,97256.00
2024-02-24T01:42:38.938Z,97271.00
2024-02-24T01:44:12.408Z,97273.00
2024-02-24T01:45:44.767Z,97267.00
2024-02-24T01:47:19.715Z,97275.00
2024-02-24T01:48:52.265Z,97284.00
2024-02-24T01:50:27.109Z,97277.00
2024-02-24T01:52:01.006Z,97282.00
2024-02-24T01:53:34.524Z,97288.00
2024-02-24T01:55:11.607Z,97294.00
2024-02-24T01:56:46.855Z,97285.00
2024-02-24T01:58:20.673Z,97286.00
2024-02-24T01:59:54.313Z,97281.00
2024-02-24T02:01:28.650Z,97276.00
2024-02-24T02:03:02.904Z,97280.00
2024-02-24T02:04:36.208Z,97287.00
2024-02-24T02:06:10.149Z,97281.00
2024-02-24T02:07:42.462Z,97281.00
2024-02-24T02:09:16.148Z,97283.00
2024-02-24T02:10:54.026Z,97272.00
2024-02-24T02:12:28.327Z,97279.00
2024-02-24T02:14:01.781Z,97289.00
2024-02-24T02:15:34.418Z,97286.00
2024-02-24T02:17:08.301Z,97280.00
2024-02-24T02:18:42.197Z,97280.00
2024-02-24T02:20:14.734Z,97280.00
2024-02-24T02:21:51.856Z,97276.00
2024-02-24T02:23:25.890Z,97275.00
2024-02-24T02:24:59.389Z,97277.00
2024-02-24T02:26:31.890Z,97275.00
2024-02-24T02:28:06.804Z,97277.00
2024-02-24T02:29:39.436Z,97273.00
2024-02-24T02:31:13.147Z,97266.00
2024-02-24T02:32:45.836Z,97267.00
2024-02-24T02:34:19.421Z,97271.00
2024-02-24T02:35:51.862Z,97264.00
2024-02-24T02:37:25.436Z,97262.00
2024-02-24T02:38:59.161Z,97256.00
2024-02-24T02:40:32.850Z,97259.00
2024-02-24T02:42:05.884Z,97261.00
2024-02-24T02:43:39.189Z,97269.00
2024-02-24T02:45:11.546Z,97262.00
2024-02-24T02:46:49.077Z,97263.00
2024-02-24T02:48:21.541Z,97274.00
2024-02-24T02:49:55.023Z,97277.00
2024-02-24T02:51:28.311Z,97271.00
2024-02-24T02:53:00.880Z,97273.00
2024-02-24T02:54:35.452Z,97275.00
2024-02-24T02:56:08.335Z,97269.00
2024-02-24T02:57:41.643Z,97266.00
2024-02-24T02:59:14.109Z,97269.00
2024-02-24T03:00:48.276Z,97269.00
2024-02-24T03:02:20.839Z,97267.00
2024-02-24T03:03:54.037Z,97264.00
2024-02-24T03:05:27.723Z,97266.00
2024-02-24T03:07:00.977Z,97265.00
2024-02-24T03:08:34.796Z,97274.00
2024-02-24T03:10:10.862Z,97269.00
2024-02-24T03:11:44.170Z,97276.00
2024-02-24T03:13:17.535Z,97279.00
2024-02-24T03:14:50.294Z,97282.00
2024-02-24T03:16:23.664Z,97284.00
2024-02-24T03:17:56.213Z,97285.00
2024-02-24T03:19:29.672Z,97294.00
2024-02-24T03:21:03.140Z,97294.00
2024-02-24T03:22:35.623Z,97294.00
2024-02-24T03:24:09.318Z,97296.00
2024-02-24T03:25:43.097Z,97287.00
2024-02-24T03:27:16.900Z,97291.00
2024-02-24T03:28:49.241Z,97299.00
2024-02-24T03:30:22.771Z,97299.00
2024-02-24T03:31:55.129Z,97288.00
2024-02-24T03:33:28.593Z,97293.00
2024-02-24T03:35:00.853Z,97297.00
2024-02-24T03:36:34.229Z,97285.00
2024-02-24T03:38:06.786Z,97293.00
2024-02-24T03:39:40.327Z,97291.00
2024-02-24T03:41:14.251Z,97291.00
2024-02-24T03:42:47.912Z,97292.00
2024-02-24T03:44:20.199Z,97287.00
2024-02-24T03:45:53.687Z,97290.00
2024-02-24T03:47:26.108Z,97297.00
2024-02-24T03:48:59.414Z,97301.00
2024-02-24T03:50:31.751Z,97303.00
2024-02-24T03:52:05.980Z,97312.00
2024-02-24T03:53:38.195Z,97302.00
2024-02-24T03:55:11.756Z,97295.00
2024-02-24T03:56:45.345Z,97305.00
2024-02-24T03:58:19.187Z,97306.00
2024-02-24T03:59:51.686Z,97297.00
2024-02-24T04:01:28.132Z,97311.00
2024-02-24T04:03:00.534Z,97310.00
2024-02-24T04:04:34.011Z,97312.00
2024-02-24T04:06:07.725Z,97309.00
2024-02-24T04:07:41.321Z,97317.00
2024-02-24T04:09:14.155Z,97325.00
2024-02-24T04:10:47.889Z,97327.00
2024-02-24T04:12:21.614Z,97327.00
2024-02-24T04:13:54.994Z,97332.00
2024-02-24T04:15:28.051Z,97336.00
2024-02-24T04:17:01.493Z,97325.00
2024-02-24T04:18:33.918Z,97332.00
2024-02-24T04:20:09.580Z,97338.00
2024-02-24T04:21:42.748Z,97329.00
2024-02-24T04:23:15.215Z,97324.00
2024-02-24T04:24:48.443Z,97335.00
2024-02-24T04:26:21.994Z,97343.00
2024-02-24T04:27:55.649Z,97333.00
2024-02-24T04:29:29.294Z,97338.00
2024-02-24T04:31:01.468Z,97338.00
2024-02-24T04:32:35.070Z,97341.00
2024-02-24T04:34:07.385Z,97342.00
2024-02-24T04:35:41.109Z,97331.00
2024-02-24T04:37:14.807Z,97338.00
2024-02-24T04:38:47.196Z,97339.00
2024-02-24T04:40:21.131Z,97344.00
2024-02-24T04:41:53.992Z,97341.00
2024-02-24T04:43:28.763Z,97346.00
2024-02-24T04:45:04.548Z,97344.00
2024-02-24T04:46:39.792Z,97354.00
2024-02-24T04:48:12.304Z,97343.00
2024-02-24T04:49:45.960Z,97344.00
2024-02-24T04:51:19.259Z,97347.00
2024-02-24T04:52:51.538Z,97349.00
2024-02-24T04:54:25.133Z,97353.00
2024-02-24T04:55:57.348Z,97364.00
2024-02-24T04:57:31.341Z,97363.00
2024-02-24T04:59:05.044Z,97355.00
2024-02-24T05:00:38.352Z,97348.00
2024-02-24T05:02:10.777Z,97366.00
2024-02-24T05:03:44.078Z,97354.00
2024-02-24T05:05:16.750Z,97360.00
2024-02-24T05:06:50.075Z,97364.00
2024-02-24T05:08:22.459Z,97362.00
2024-02-24T05:09:55.684Z,97358.00
2024-02-24T05:11:28.975Z,97358.00
2024-02-24T05:13:04.284Z,97366.00
2024-02-24T05:14:41.234Z,97370.00
2024-02-24T05:16:15.010Z,97370.00
2024-02-24T05:17:48.633Z,97369.00
2024-02-24T05:19:21.281Z,97368.00
2024-02-24T05:20:55.025Z,97363.00
2024-02-24T05:22:28.340Z,97367.00
2024-02-24T05:24:02.064Z,97370.00
2024-02-24T05:25:35.192Z,97368.00
2024-02-24T05:27:09.045Z,97365.00
2024-02-24T05:28:41.347Z,97364.00
2024-02-24T05:30:16.990Z,97370.00
2024-02-24T05:31:49.556Z,97363.00
2024-02-24T05:33:23.400Z,97366.00
2024-02-24T05:34:55.943Z,97368.00
2024-02-24T05:36:29.593Z,97375.00
2024-02-24T05:38:02.945Z,97372.00
2024-02-24T05:39:35.354Z,97368.00
2024-02-24T05:41:09.130Z,97378.00
2024-02-24T05:42:45.076Z,97372.00
2024-02-24T05:44:17.331Z,97374.00
2024-02-24T05:45:55.871Z,97375.00
2024-02-24T05:47:29.627Z,97371.00
2024-02-24T05:49:02.391Z,97382.00
2024-02-24T05:50:35.946Z,97383.00
2024-02-24T05:52:08.293Z,97373.00
2024-02-24T05:53:42.974Z,97383.00
2024-02-24T05:55:16.239Z,97393.00
2024-02-24T05:56:49.621Z,97399.00
2024-02-24T05:58:22.779Z,97392.00
2024-02-24T05:59:56.577Z,97388.00
2024-02-24T06:01:30.254Z,97404.00
2024-02-24T06:03:03.877Z,97395.00
2024-02-24T06:04:37.558Z,97403.00
2024-02-24T06:06:11.116Z,97398.00
2024-02-24T06:07:44.493Z,97403.00
2024-02-24T06:09:16.947Z,97405.00
2024-02-24T06:10:50.251Z,97397.00
2024-02-24T06:12:22.681Z,97406.00
2024-02-24T06:13:56.164Z,97402.00
2024-02-24T06:15:28.602Z,97411.00
2024-02-24T06:17:03.256Z,97413.00
2024-02-24T06:18:35.714Z,97408.00
2024-02-24T06:20:11.038Z,97414.00
2024-02-24T06:21:43.570Z,97414.00
2024-02-24T06:23:20.038Z,97412.00
2024-02-24T06:24:52.426Z,97413.00
2024-02-24T06:26:25.937Z,97417.00
2024-02-24T06:27:59.429Z,97412.00
2024-02-24T06:29:33.159Z,97416.00
2024-02-24T06:31:05.957Z,97422.00
2024-02-24T06:32:40.804Z,97415.00
2024-02-24T06:34:13.167Z,97411.00
2024-02-24T06:35:46.790Z,97411.00
2024-02-24T06:37:19.263Z,97403.00
2024-02-24T06:38:52.726Z,97419.00
2024-02-24T06:40:32.927Z,97420.00
2024-02-24T06:42:11.656Z,97411.00
2024-02-24T06:43:44.321Z,97413.00
2024-02-24T06:45:17.959Z,97422.00
2024-02-24T06:46:54.380Z,97417.00
2024-02-24T06:48:30.149Z,97429.00
2024-02-24T06:50:03.465Z,97416.00
2024-02-24T06:51:36.851Z,97427.00
2024-02-24T06:53:09.344Z,97428.00
2024-02-24T06:54:43.132Z,97432.00
2024-02-24T06:56:16.874Z,97427.00
2024-02-24T06:57:50.283Z,97435.00
2024-02-24T06:59:24.166Z,97433.00
2024-02-24T07:00:56.507Z,97436.00
2024-02-24T07:02:30.299Z,97433.00
2024-02-24T07:04:04.056Z,97444.00
2024-02-24T07:05:38.066Z,97443.00
2024-02-24T07:07:10.656Z,97445.00
2024-02-24T07:08:45.028Z,97446.00
2024-02-24T07:10:17.523Z,97447.00
2024-02-24T07:11:51.446Z,97454.00
2024-02-24T07:13:24.499Z,97459.00
2024-02-24T07:14:58.309Z,97457.00
2024-02-24T07:16:31.606Z,97460.00
2024-02-24T07:18:05.174Z,97461.00
2024-02-24T07:19:40.403Z,97463.00
2024-02-24T07:21:12.809Z,97473.00
2024-02-24T07:22:49.679Z,97470.00
2024-02-24T07:24:23.450Z,97480.00
2024-02-24T07:25:55.803Z,97483.00
2024-02-24T07:27:29.704Z,97491.00
2024-02-24T07:29:02.125Z,97490.00
2024-02-24T07:30:35.529Z,97495.00
2024-02-24T07:32:08.044Z,97492.00
2024-02-24T07:33:41.475Z,97493.00
2024-02-24T07:35:15.374Z,97494.00
2024-02-24T07:36:48.959Z,97493.00
2024-02-24T07:38:21.301Z,97502.00
2024-02-24T07:39:54.771Z,97493.00
2024-02-24T07:41:26.987Z,97505.00
2024-02-24T07:43:00.233Z,97503.00
2024-02-24T07:44:32.635Z,97499.00
2024-02-24T07:46:06.347Z,97503.00
2024-02-24T07:47:39.079Z,97511.00
2024-02-24T07:49:12.985Z,97511.00
2024-02-24T07:50:46.900Z,97504.00
2024-02-24T07:52:20.745Z,97513.00
2024-02-24T07:53:53.400Z,97520.00
2024-02-24T07:55:27.234Z,97514.00
2024-02-24T07:56:59.614Z,97519.00
2024-02-24T07:58:33.061Z,97522.00
2024-02-24T08:00:07.646Z,97516.00
2024-02-24T08:01:41.096Z,97521.00
2024-02-24T08:03:13.671Z,97522.00
2024-02-24T08:04:47.282Z,97532.00
2024-02-24T08:06:20.963Z,97530.00
2024-02-24T08:07:54.689Z,97543.00
2024-02-24T08:09:26.900Z,97532.00
2024-02-24T08:11:01.424Z,97539.00
2024-02-24T08:12:34.221Z,97540.00
2024-02-24T08:14:08.119Z,97538.00
2024-02-24T08:15:40.403Z,97539.00
2024-02-24T08:17:13.771Z,97531.00
2024-02-24T08:18:48.332Z,97539.00
2024-02-24T08:20:20.936Z,97536.00
2024-02-24T08:21:55.576Z,97538.00
2024-02-24T08:23:28.083Z,97545.00
2024-02-24T08:25:01.389Z,97539.00
2024-02-24T08:26:36.171Z,97533.00
2024-02-24T08:28:09.509Z,97541.00
2024-02-24T08:29:42.290Z,97547.00
2024-02-24T08:31:15.752Z,97535.00
2024-02-24T08:32:49.739Z,97545.00
2024-02-24T08:34:23.153Z,97553.00
2024-02-24T08:35:55.919Z,97549.00
2024-02-24T08:37:30.496Z,97557.00
2024-02-24T08:39:05.238Z,97553.00
2024-02-24T08:40:37.623Z,97555.00
2024-02-24T08:42:11.124Z,97557.00
2024-02-24T08:43:43.738Z,97563.00
2024-02-24T08:45:17.210Z,97548.00
2024-02-24T08:46:49.642Z,97561.00
2024-02-24T08:48:22.988Z,97563.00
2024-02-24T08:49:55.360Z,97566.00
2024-02-24T08:51:43.800Z,97573.00
2024-02-24T08:53:19.832Z,97566.00
2024-02-24T08:54:53.409Z,97580.00
2024-02-24T08:56:26.621Z,97572.00
2024-02-24T08:58:00.125Z,97575.00
2024-02-24T08:59:32.770Z,97572.00
2024-02-24T09:01:07.422Z,97578.00
2024-02-24T09:02:40.081Z,97582.00
2024-02-24T09:04:13.648Z,97584.00
2024-02-24T09:05:46.768Z,97579.00
2024-02-24T09:07:21.633Z,97586.00
2024-02-24T09:08:55.444Z,97580.00
2024-02-24T09:10:28.817Z,97584.00
2024-02-24T09:12:01.314Z,97587.00
2024-02-24T09:13:35.160Z,97582.00
2024-02-24T09:15:08.991Z,97583.00
2024-02-24T09:16:42.227Z,97578.00
2024-02-24T09:18:14.960Z,97582.00
2024-02-24T09:19:48.392Z,97581.00
2024-02-24T09:21:21.136Z,97591.00
2024-02-24T09:22:54.664Z,97588.00
2024-02-24T09:24:29.137Z,97590.00
2024-02-24T09:26:03.135Z,97598.00
2024-02-24T09:27:36.634Z,97602.00
2024-02-24T09:29:09.904Z,97603.00
2024-02-24T09:30:42.718Z,97604.00
2024-02-24T09:32:18.819Z,97607.00
2024-02-24T09:33:56.710Z,97613.00
2024-02-24T09:35:30.171Z,97617.00
2024-02-24T09:37:04.443Z,97611.00
2024-02-24T09:38:39.110Z,97619.00
2024-02-24T09:40:15.001Z,97625.00
2024-02-24T09:41:47.542Z,97632.00
2024-02-24T09:43:21.209Z,97625.00
2024-02-24T09:44:59.392Z,97627.00
2024-02-24T09:46:37.446Z,97634.00
2024-02-24T09:48:11.781Z,97627.00
2024-02-24T09:49:46.280Z,97636.00
2024-02-24T09:51:19.080Z,97647.00
2024-02-24T09:52:52.293Z,97644.00
2024-02-24T09:54:25.287Z,97647.00
2024-02-24T09:56:01.216Z,97646.00
2024-02-24T09:57:36.601Z,97651.00
2024-02-24T09:59:11.377Z,97649.00
2024-02-24T10:00:45.055Z,97648.00
2024-02-24T10:02:19.004Z,97651.00
2024-02-24T10:03:53.268Z,97659.00
2024-02-24T10:05:25.687Z,97648.00
2024-02-24T10:06:59.126Z,97659.00
2024-02-24T10:08:31.969Z,97653.00
2024-02-24T10:10:06.212Z,97666.00
2024-02-24T10:11:41.333Z,97666.00
2024-02-24T10:13:20.488Z,97664.00
2024-02-24T10:14:54.836Z,97664.00
2024-02-24T10:16:30.381Z,97668.00
2024-02-24T10:18:03.186Z,97681.00
2024-02-24T10:19:36.989Z,97675.00
2024-02-24T10:21:09.540Z,97686.00
2024-02-24T10:22:43.610Z,97693.00
2024-02-24T10:24:15.739Z,97687.00
2024-02-24T10:25:49.919Z,97694.00
2024-02-24T10:27:23.749Z,97691.00
2024-02-24T10:28:57.444Z,97688.00
2024-02-24T10:30:30.631Z,97695.00
2024-02-24T10:32:03.173Z,97701.00
2024-02-24T10:33:38.733Z,97690.00
2024-02-24T10:35:12.378Z,97699.00
2024-02-24T10:36:48.072Z,97695.00
2024-02-24T10:38:29.321Z,97679.00
2024-02-24T10:40:13.409Z,97696.00
2024-02-24T10:41:47.466Z,97690.00
2024-02-24T10:43:23.742Z,97689.00
2024-02-24T10:44:56.844Z,97684.00
2024-02-24T10:46:30.998Z,97690.00
2024-02-24T10:48:05.344Z,97689.00
2024-02-24T10:49:37.870Z,97695.00
2024-02-24T10:51:15.019Z,97690.00
2024-02-24T10:52:49.905Z,97704.00
2024-02-24T10:54:50.873Z,97698.00
2024-02-24T10:56:24.366Z,97714.00
2024-02-24T10:57:59.856Z,97713.00
2024-02-24T10:59:34.464Z,97710.00
2024-02-24T11:01:11.073Z,97708.00
2024-02-24T11:02:44.948Z,97704.00
2024-02-24T11:04:18.751Z,97711.00
2024-02-24T11:06:03.385Z,97708.00
2024-02-24T11:07:36.631Z,97712.00
2024-02-24T11:09:16.913Z,97710.00
2024-02-24T11:10:53.866Z,97709.00
2024-02-24T11:12:32.424Z,97704.00
2024-02-24T11:15:44.838Z,97719.00
2024-02-24T11:17:53.337Z,97723.00
2024-02-24T11:19:42.240Z,97719.00
2024-02-24T11:21:16.174Z,97722.00
2024-02-24T11:22:48.526Z,97718.00
2024-02-24T11:24:23.317Z,97716.00
2024-02-24T11:26:32.482Z,97716.00
2024-02-24T11:28:05.270Z,97723.00
2024-02-24T11:29:39.595Z,97725.00
2024-02-24T11:31:29.447Z,97726.00
2024-02-24T11:33:24.198Z,97726.00
2024-02-24T11:34:58.941Z,97714.00
2024-02-24T11:36:32.823Z,97716.00
2024-02-24T11:38:07.250Z,97729.00
2024-02-24T11:39:44.751Z,97722.00
2024-02-24T11:41:18.327Z,97723.00
2024-02-24T11:42:53.945Z,97707.00
2024-02-24T11:44:26.346Z,97718.00
2024-02-24T11:45:59.780Z,97715.00
2024-02-24T11:47:36.542Z,97719.00
2024-02-24T11:49:10.041Z,97729.00
2024-02-24T11:50:43.792Z,97722.00
2024-02-24T11:52:17.846Z,97727.00
2024-02-24T11:53:51.011Z,97723.00
2024-02-24T11:55:24.536Z,97723.00
2024-02-24T11:56:57.978Z,97733.00
2024-02-24T11:58:30.399Z,97728.00
2024-02-24T12:00:04.875Z,97734.00
2024-02-24T12:01:37.776Z,97730.00
2024-02-24T12:03:14.794Z,97740.00
2024-02-24T12:04:49.224Z,97747.00
2024-02-24T12:06:24.953Z,97737.00
2024-02-24T12:08:07.116Z,97736.00
2024-02-24T12:09:40.477Z,97737.00
2024-02-24T12:11:13.103Z,97743.00
2024-02-24T12:12:47.294Z,97746.00
2024-02-24T12:14:20.063Z,97738.00
2024-02-24T12:15:55.417Z,97742.00
2024-02-24T12:17:28.827Z,97745.00
2024-02-24T12:19:02.923Z,97738.00
2024-02-24T12:20:38.827Z,97750.00
2024-02-24T12:22:11.327Z,97744.00
2024-02-24T12:23:44.734Z,97757.00
2024-02-24T12:25:17.386Z,97745.00
2024-02-24T12:26:51.802Z,97743.00
2024-02-24T12:28:24.345Z,97735.00
2024-02-24T12:29:57.743Z,97741.00
2024-02-24T12:31:30.665Z,97740.00
2024-02-24T12:33:04.406Z,97735.00
2024-02-24T12:34:38.929Z,97739.00
2024-02-24T12:36:14.145Z,97736.00
2024-02-24T12:37:48.006Z,97735.00
2024-02-24T12:39:21.265Z,97736.00
2024-02-24T12:40:57.975Z,97729.00
2024-02-24T12:42:31.248Z,97730.00
2024-02-24T12:44:07.399Z,97737.00
2024-02-24T12:45:40.116Z,97736.00
2024-02-24T12:47:13.526Z,97739.00
2024-02-24T12:48:46.621Z,97740.00
2024-02-24T12:50:24.148Z,97750.00
2024-02-24T12:51:56.608Z,97755.00
2024-02-24T12:53:30.340Z,97748.00
2024-02-24T12:55:02.879Z,97749.00
2024-02-24T12:56:36.453Z,97754.00
2024-02-24T12:58:08.898Z,97753.00
2024-02-24T12:59:42.652Z,97762.00
2024-02-24T13:01:17.144Z,97751.00
2024-02-24T13:02:49.588Z,97756.00
2024-02-24T13:04:23.672Z,97758.00
2024-02-24T13:05:58.517Z,97746.00
2024-02-24T13:07:31.273Z,97759.00
2024-02-24T13:09:05.130Z,97755.00
2024-02-24T13:10:37.393Z,97758.00
2024-02-24T13:12:11.209Z,97755.00
2024-02-24T13:13:43.686Z,97747.00
2024-02-24T13:15:17.452Z,97740.00
2024-02-24T13:16:49.853Z,97746.00
2024-02-24T13:18:23.817Z,97747.00
2024-02-24T13:19:56.516Z,97758.00
2024-02-24T13:21:31.509Z,97758.00
2024-02-24T13:23:04.336Z,97748.00
2024-02-24T13:24:37.815Z,97756.00
2024-02-24T13:26:11.420Z,97751.00
2024-02-24T13:27:45.246Z,97758.00
2024-02-24T13:29:18.981Z,97751.00
2024-02-24T13:30:54.658Z,97747.00
2024-02-24T13:32:28.068Z,97754.00
2024-02-24T13:34:00.738Z,97770.00
2024-02-24T13:35:34.560Z,97760.00
2024-02-24T13:37:08.790Z,97765.00
2024-02-24T13:38:42.042Z,97761.00
2024-02-24T13:40:15.097Z,97777.00
2024-02-24T13:41:48.397Z,97756.00
2024-02-24T13:43:21.154Z,97772.00
2024-02-24T13:44:54.403Z,97779.00
2024-02-24T13:46:27.304Z,97783.00
2024-02-24T13:48:00.818Z,97789.00
2024-02-24T13:49:33.741Z,97793.00
2024-02-24T13:51:07.572Z,97782.00
2024-02-24T13:52:42.053Z,97782.00
2024-02-24T13:54:15.315Z,97779.00
2024-02-24T13:55:47.709Z,97787.00
2024-02-24T13:57:20.920Z,97773.00
2024-02-24T13:58:53.977Z,97785.00
2024-02-24T14:00:28.433Z,97791.00
2024-02-24T14:02:01.201Z,97786.00
2024-02-24T14:03:34.449Z,97781.00
2024-02-24T14:05:07.627Z,97789.00
2024-02-24T14:06:41.066Z,97789.00
2024-02-24T14:08:15.190Z,97792.00
2024-02-24T14:09:48.512Z,97789.00
2024-02-24T14:11:22.417Z,97792.00
2024-02-24T14:12:55.950Z,97786.00
2024-02-24T14:14:28.337Z,97801.00
2024-02-24T14:16:01.905Z,97801.00
2024-02-24T14:17:37.178Z,97800.00
2024-02-24T14:19:09.826Z,97797.00
2024-02-24T14:20:44.425Z,97789.00
2024-02-24T14:22:17.921Z,97790.00
2024-02-24T14:23:52.111Z,97796.00
2024-02-24T14:25:25.390Z,97792.00
2024-02-24T14:26:58.781Z,97796.00
2024-02-24T14:28:31.292Z,97804.00
2024-02-24T14:30:05.404Z,97801.00
2024-02-24T14:31:37.986Z,97799.00
2024-02-24T14:33:12.576Z,97801.00
2024-02-24T14:34:46.176Z,97798.00
2024-02-24T14:36:18.763Z,97809.00
2024-02-24T14:37:52.003Z,97808.00
2024-02-24T14:39:26.542Z,97797.00
2024-02-24T14:41:01.367Z,97803.00
2024-02-24T14:42:34.963Z,97804.00
2024-02-24T14:44:08.304Z,97809.00
2024-02-24T14:45:40.819Z,97811.00
2024-02-24T14:47:14.096Z,97811.00
2024-02-24T14:48:46.805Z,97813.00
2024-02-24T14:50:20.554Z,97818.00
2024-02-24T14:51:53.153Z,97812.00
2024-02-24T14:53:26.483Z,97811.00
2024-02-24T14:55:01.678Z,97821.00
2024-02-24T14:56:34.292Z,97801.00
2024-02-24T14:58:08.372Z,97815.00
2024-02-24T14:59:42.215Z,97813.00
2024-02-24T15:01:16.153Z,97804.00
2024-02-24T15:02:58.310Z,97818.00
2024-02-24T15:04:38.846Z,97822.00
2024-02-24T15:06:13.271Z,97813.00
2024-02-24T15:07:45.778Z,97821.00
2024-02-24T15:09:19.625Z,97818.00
2024-02-24T15:10:53.227Z,97819.00
2024-02-24T15:12:27.862Z,97820.00
2024-02-24T15:14:00.168Z,97821.00
2024-02-24T15:15:33.550Z,97816.00
2024-02-24T15:17:06.928Z,97812.00
2024-02-24T15:18:39.680Z,97821.00
2024-02-24T15:20:13.474Z,97815.00
2024-02-24T15:21:47.366Z,97821.00
2024-02-24T15:23:23.098Z,97813.00
2024-02-24T15:24:55.614Z,97812.00
2024-02-24T15:26:33.956Z,97809.00
2024-02-24T15:28:07.314Z,97817.00
2024-02-24T15:29:40.938Z,97815.00
2024-02-24T15:31:18.382Z,97815.00
2024-02-24T15:32:58.959Z,97829.00
2024-02-24T15:34:31.330Z,97825.00
2024-02-24T15:36:06.626Z,97820.00
2024-02-24T15:37:39.656Z,97838.00
2024-02-24T15:39:13.412Z,97832.00
2024-02-24T15:40:45.987Z,97831.00
2024-02-24T15:42:21.036Z,97823.00
2024-02-24T15:43:54.462Z,97822.00
2024-02-24T15:45:28.032Z,97817.00
2024-02-24T15:47:00.396Z,97819.00
2024-02-24T15:48:35.467Z,97825.00
2024-02-24T15:50:10.994Z,97826.00
2024-02-24T15:51:43.922Z,97826.00
2024-02-24T15:53:17.288Z,97835.00
2024-02-24T15:54:51.388Z,97844.00
2024-02-24T15:56:25.797Z,97838.00
2024-02-24T15:58:01.329Z,97846.00
2024-02-24T15:59:34.552Z,97853.00
2024-02-24T16:01:07.228Z,97843.00
2024-02-24T16:02:42.703Z,97857.00
2024-02-24T16:04:15.370Z,97859.00
2024-02-24T16:05:48.900Z,97874.00
2024-02-24T16:07:21.300Z,97888.00
2024-02-24T16:08:55.783Z,97890.00
2024-02-24T16:10:31.908Z,97905.00
2024-02-24T16:12:21.190Z,97911.00
2024-02-24T16:13:58.365Z,97904.00
2024-02-24T16:15:34.780Z,97899.00
2024-02-24T16:17:07.121Z,97905.00
2024-02-24T16:18:42.443Z,97894.00
2024-02-24T16:20:17.425Z,97898.00
2024-02-24T16:21:51.083Z,97893.00
2024-02-24T16:23:23.343Z,97902.00
2024-02-24T16:24:56.946Z,97910.00
2024-02-24T16:26:29.289Z,97896.00
2024-02-24T16:28:03.029Z,97899.00
2024-02-24T16:29:36.952Z,97906.00
2024-02-24T16:31:10.864Z,97909.00
2024-02-24T16:32:43.419Z,97910.00
2024-02-24T16:34:17.131Z,97913.00
2024-02-24T16:35:54.166Z,97920.00
2024-02-24T16:37:28.058Z,97927.00
2024-02-24T16:39:05.341Z,97920.00
2024-02-24T16:40:37.913Z,97914.00
2024-02-24T16:42:11.381Z,97916.00
2024-02-24T16:43:43.771Z,97921.00
2024-02-24T16:45:18.721Z,97929.00
2024-02-24T16:46:51.328Z,97941.00
2024-02-24T16:48:24.662Z,97931.00
2024-02-24T16:49:57.455Z,97934.00
2024-02-24T16:51:30.764Z,97938.00
2024-02-24T16:53:03.321Z,97945.00
2024-02-24T16:54:39.018Z,97942.00
2024-02-24T16:56:11.919Z,97953.00
2024-02-24T16:57:45.098Z,97945.00
2024-02-24T16:59:18.776Z,97942.00
2024-02-24T17:00:54.384Z,97941.00
2024-02-24T17:02:27.253Z,97950.00
2024-02-24T17:04:01.955Z,97947.00
2024-02-24T17:05:35.423Z,97944.00
2024-02-24T17:07:09.579Z,97949.00
2024-02-24T17:08:44.367Z,97947.00
2024-02-24T17:10:18.387Z,97956.00
2024-02-24T17:11:53.764Z,97957.00
2024-02-24T17:13:27.737Z,97968.00
2024-02-24T17:15:03.953Z,97961.00
2024-02-24T17:16:40.496Z,97962.00
2024-02-24T17:18:18.585Z,97961.00
2024-02-24T17:19:57.922Z,97974.00
2024-02-24T17:21:32.021Z,97971.00
2024-02-24T17:23:10.856Z,97977.00
2024-02-24T17:24:44.106Z,97969.00
2024-02-24T17:26:18.720Z,97970.00
2024-02-24T17:27:52.765Z,97974.00
2024-02-24T17:29:27.375Z,97976.00
2024-02-24T17:31:00.286Z,97981.00
2024-02-24T17:32:35.351Z,97986.00
2024-02-24T17:34:09.525Z,97976.00
2024-02-24T17:35:43.898Z,97987.00
2024-02-24T17:37:16.361Z,97981.00
2024-02-24T17:38:50.855Z,97986.00
2024-02-24T17:40:23.919Z,97984.00
2024-02-24T17:41:58.922Z,97985.00
2024-02-24T17:43:34.432Z,97983.00
2024-02-24T17:45:10.444Z,97988.00
2024-02-24T17:46:44.143Z,97983.00
2024-02-24T17:48:20.725Z,97983.00
2024-02-24T17:49:55.095Z,97989.00
2024-02-24T17:51:31.408Z,97981.00
2024-02-24T17:53:04.262Z,97985.00
2024-02-24T17:54:37.663Z,97989.00
2024-02-24T17:56:10.060Z,97982.00
2024-02-24T17:57:43.233Z,97992.00
2024-02-24T17:59:15.554Z,97997.00
2024-02-24T18:00:49.128Z,97990.00
2024-02-24T18:02:23.570Z,97995.00
2024-02-24T18:03:59.430Z,97999.00
2024-02-24T18:05:33.181Z,97991.00
2024-02-24T18:07:05.671Z,97998.00
2024-02-24T18:08:39.028Z,97988.00
2024-02-24T18:10:13.267Z,97999.00
2024-02-24T18:11:46.824Z,98010.00
2024-02-24T18:13:19.078Z,98000.00
2024-02-24T18:14:53.854Z,98007.00
2024-02-24T18:16:26.550Z,98017.00
2024-02-24T18:18:00.473Z,98017.00
2024-02-24T18:19:34.317Z,98023.00
2024-02-24T18:21:08.045Z,98022.00
2024-02-24T18:22:43.887Z,98018.00
2024-02-24T18:24:18.375Z,98022.00
2024-02-24T18:25:53.254Z,98025.00
2024-02-24T18:27:27.183Z,98031.00